createdAt,value
2019-03-22T00:00:38.895Z,69.47
2019-03-22T00:03:07.952Z,83.03
2019-03-22T00:05:38.686Z,82.57
2019-03-22T00:08:10.024Z,78.20
2019-03-22T00:10:40.753Z,63.50
2019-03-22T00:13:11.793Z,63.57
2019-03-22T00:15:52.258Z,66.60
2019-03-22T00:18:23.148Z,76.53
2019-03-22T00:20:54.349Z,69.57
2019-03-22T00:23:26.526Z,70.63
2019-03-22T00:25:57.858Z,70.23
2019-03-22T00:28:29.508Z,67.37
2019-03-22T00:31:08.445Z,76.50
2019-03-22T00:33:39.895Z,77.17
2019-03-22T00:36:10.507Z,69.07
2019-03-22T00:38:41.060Z,73.90
2019-03-22T00:41:14.871Z,81.07
2019-03-22T00:46:39.245Z,81.20
2019-03-22T00:49:13.173Z,79.23
2019-03-22T00:52:08.992Z,78.30
2019-03-22T00:54:43.114Z,77.63
2019-03-22T00:57:27.775Z,68.83
2019-03-22T00:59:54.281Z,77.47
2019-03-22T01:02:25.839Z,76.07
2019-03-22T01:04:57.210Z,66.00
2019-03-22T01:07:29.856Z,69.83
2019-03-22T01:10:05.117Z,68.77
2019-03-22T01:12:35.730Z,70.47
2019-03-22T01:15:12.728Z,73.00
2019-03-22T01:17:43.157Z,73.57
2019-03-22T01:20:16.340Z,71.73
2019-03-22T01:22:47.057Z,72.80
2019-03-22T01:25:17.699Z,68.47
2019-03-22T01:27:50.151Z,70.33
2019-03-22T01:30:22.352Z,69.37
2019-03-22T01:32:53.476Z,70.33
2019-03-22T01:35:28.436Z,70.10
2019-03-22T01:37:58.953Z,70.57
2019-03-22T01:40:29.575Z,71.30
2019-03-22T01:42:59.995Z,74.33
2019-03-22T01:45:31.760Z,62.53
2019-03-22T01:48:03.125Z,69.97
2019-03-22T01:50:34.974Z,67.97
2019-03-22T01:53:35.152Z,72.77
2019-03-22T01:56:11.039Z,71.03
2019-03-22T01:58:45.281Z,70.93
2019-03-22T02:01:21.126Z,71.10
2019-03-22T02:03:54.719Z,73.87
2019-03-22T02:06:26.376Z,67.03
2019-03-22T02:09:08.290Z,64.37
2019-03-22T02:14:39.025Z,61.60
2019-03-22T02:17:10.063Z,71.47
2019-03-22T02:19:48.358Z,69.83
2019-03-22T02:22:40.795Z,72.00
2019-03-22T02:25:19.942Z,71.60
2019-03-22T02:27:50.768Z,75.03
2019-03-22T02:30:24.479Z,73.83
2019-03-22T02:32:55.821Z,66.60
2019-03-22T02:35:29.776Z,67.33
2019-03-22T02:38:03.869Z,74.73
2019-03-22T02:40:38.158Z,72.50
2019-03-22T02:43:11.238Z,74.10
2019-03-22T02:45:44.955Z,62.17
2019-03-22T02:48:22.773Z,65.47
2019-03-22T02:50:56.279Z,65.43
2019-03-22T02:53:30.564Z,66.07
2019-03-22T02:56:01.868Z,68.30
2019-03-22T02:58:32.535Z,74.43
2019-03-22T03:01:05.956Z,71.33
2019-03-22T03:03:37.798Z,70.47
2019-03-22T03:06:07.914Z,72.53
2019-03-22T03:08:38.036Z,69.10
2019-03-22T03:11:08.468Z,74.67
2019-03-22T03:13:40.348Z,64.10
2019-03-22T03:16:12.147Z,72.60
2019-03-22T03:18:42.823Z,66.33
2019-03-22T03:21:12.937Z,74.37
2019-03-22T03:23:42.941Z,65.13
2019-03-22T03:26:13.275Z,72.33
2019-03-22T03:28:43.918Z,67.00
2019-03-22T03:31:14.549Z,67.97
2019-03-22T03:33:45.168Z,68.40
2019-03-22T03:36:15.788Z,66.23
2019-03-22T03:38:45.927Z,69.13
2019-03-22T03:41:16.767Z,64.87
2019-03-22T03:43:47.808Z,66.63
2019-03-22T03:46:18.134Z,71.20
2019-03-22T03:48:59.420Z,60.57
2019-03-22T03:51:30.428Z,63.30
2019-03-22T03:54:01.891Z,66.30
2019-03-22T03:57:04.895Z,67.17
2019-03-22T03:59:36.627Z,68.40
2019-03-22T04:02:09.948Z,69.27
2019-03-22T04:04:54.172Z,68.80
2019-03-22T04:07:25.551Z,69.60
2019-03-22T04:09:57.090Z,61.13
2019-03-22T04:12:29.159Z,68.50
2019-03-22T04:15:00.597Z,67.63
2019-03-22T04:17:37.064Z,65.23
2019-03-22T04:20:08.806Z,62.80
2019-03-22T04:22:42.939Z,65.03
2019-03-22T04:25:15.494Z,69.10
2019-03-22T04:27:48.908Z,68.23
2019-03-22T04:30:19.958Z,67.37
2019-03-22T04:32:50.779Z,59.83
2019-03-22T04:35:21.418Z,62.47
2019-03-22T04:37:53.388Z,60.90
2019-03-22T04:40:25.030Z,66.97
2019-03-22T04:42:55.577Z,70.70
2019-03-22T04:45:26.895Z,81.77
2019-03-22T04:48:01.626Z,72.87
2019-03-22T04:50:42.927Z,91.43
2019-03-22T04:56:17.846Z,149.07
2019-03-22T04:58:50.848Z,126.03
2019-03-22T05:01:22.095Z,142.03
2019-03-22T05:03:53.950Z,130.97
2019-03-22T05:06:24.167Z,126.57
2019-03-22T05:08:56.143Z,133.60
2019-03-22T05:11:27.575Z,115.93
2019-03-22T05:14:00.376Z,147.07
2019-03-22T05:16:38.074Z,116.77
2019-03-22T05:19:21.698Z,121.13
2019-03-22T05:21:52.725Z,104.73
2019-03-22T05:24:26.553Z,89.80
2019-03-22T05:27:01.465Z,84.93
2019-03-22T05:29:41.413Z,87.23
2019-03-22T05:32:19.852Z,76.37
2019-03-22T05:35:03.114Z,73.13
2019-03-22T05:37:34.731Z,76.13
2019-03-22T05:40:15.090Z,82.67
2019-03-22T05:43:04.568Z,77.40
2019-03-22T05:45:50.044Z,72.17
2019-03-22T05:48:28.149Z,73.47
2019-03-22T05:51:11.723Z,66.57
2019-03-22T05:53:46.005Z,78.53
2019-03-22T05:56:18.055Z,77.33
2019-03-22T05:58:49.533Z,69.67
2019-03-22T06:07:15.877Z,61.70
2019-03-22T06:09:47.137Z,57.27
2019-03-22T06:12:21.960Z,56.73
2019-03-22T06:14:52.154Z,58.97
2019-03-22T06:17:24.740Z,55.50
2019-03-22T06:19:55.371Z,53.37
2019-03-22T06:22:26.420Z,60.30
2019-03-22T06:24:58.786Z,58.63
2019-03-22T06:27:36.797Z,55.07
2019-03-22T06:30:27.597Z,58.73
2019-03-22T06:33:01.515Z,54.27
2019-03-22T06:35:31.815Z,55.80
2019-03-22T06:38:14.537Z,54.33
2019-03-22T06:40:47.723Z,52.00
2019-03-22T06:43:20.917Z,51.30
2019-03-22T06:45:55.338Z,50.53
2019-03-22T06:48:27.320Z,51.43
2019-03-22T06:51:15.556Z,49.70
2019-03-22T06:53:53.856Z,53.20
2019-03-22T06:56:28.996Z,52.90
2019-03-22T06:59:01.884Z,55.13
2019-03-22T07:01:36.024Z,53.07
2019-03-22T07:04:06.715Z,52.40
2019-03-22T07:06:38.146Z,53.50
2019-03-22T07:09:09.215Z,48.57
2019-03-22T07:11:41.871Z,53.07
2019-03-22T07:14:14.895Z,48.83
2019-03-22T07:16:45.406Z,46.03
2019-03-22T07:19:18.076Z,47.87
2019-03-22T07:21:51.885Z,41.20
2019-03-22T07:24:21.896Z,42.13
2019-03-22T07:26:54.383Z,41.57
2019-03-22T07:29:31.191Z,48.20
2019-03-22T07:32:04.545Z,39.30
2019-03-22T07:34:35.480Z,41.83
2019-03-22T07:37:06.217Z,35.57
2019-03-22T07:39:37.677Z,39.33
2019-03-22T07:42:07.896Z,35.50
2019-03-22T07:44:38.726Z,37.47
2019-03-22T07:47:10.896Z,39.03
2019-03-22T07:49:46.539Z,35.57
2019-03-22T07:52:24.345Z,35.17
2019-03-22T07:54:55.144Z,32.90
2019-03-22T07:57:25.814Z,34.33
2019-03-22T07:59:58.595Z,34.27
2019-03-22T08:02:28.816Z,33.47
2019-03-22T08:05:09.476Z,42.33
2019-03-22T08:07:44.920Z,48.07
2019-03-22T08:10:16.886Z,43.07
2019-03-22T08:12:51.506Z,39.17
2019-03-22T08:15:37.024Z,35.07
2019-03-22T08:37:37.757Z,44.53
2019-03-22T08:40:17.503Z,40.70
2019-03-22T08:43:09.835Z,38.47
2019-03-22T08:46:08.038Z,39.43
2019-03-22T08:49:13.111Z,35.27
2019-03-22T08:51:52.486Z,41.60
2019-03-22T08:54:23.478Z,38.67
2019-03-22T09:00:39.307Z,35.27
2019-03-22T09:03:16.416Z,39.03
2019-03-22T09:05:50.829Z,34.57
2019-03-22T09:08:21.865Z,32.50
2019-03-22T09:10:56.165Z,29.23
2019-03-22T09:13:36.152Z,30.13
2019-03-22T09:16:12.340Z,28.40
2019-03-22T09:18:47.777Z,28.43
2019-03-22T09:28:23.845Z,27.10
2019-03-22T09:31:10.122Z,28.87
2019-03-22T09:33:39.797Z,29.23
2019-03-22T09:36:13.569Z,31.47
2019-03-22T09:38:44.295Z,28.40
2019-03-22T09:41:14.413Z,28.70
2019-03-22T09:46:47.730Z,26.90
2019-03-22T09:49:37.510Z,30.77
2019-03-22T09:52:13.089Z,29.10
2019-03-22T09:54:56.155Z,28.03
2019-03-22T09:57:40.860Z,25.17
2019-03-22T10:00:15.908Z,23.83
2019-03-22T10:02:53.669Z,28.33
2019-03-22T10:05:31.187Z,26.63
2019-03-22T10:08:08.669Z,23.37
2019-03-22T10:10:50.504Z,26.67
2019-03-22T10:17:07.430Z,33.33
2019-03-22T10:19:58.826Z,28.80
2019-03-22T10:22:46.852Z,32.47
2019-03-22T10:25:20.852Z,31.90
2019-03-22T10:27:54.232Z,28.67
2019-03-22T10:30:29.686Z,31.50
2019-03-22T10:33:22.130Z,31.70
2019-03-22T10:35:47.846Z,31.30
2019-03-22T10:38:30.897Z,31.23
2019-03-22T10:40:58.049Z,28.63
2019-03-22T10:50:01.172Z,30.53
2019-03-22T10:52:33.116Z,30.27
2019-03-22T10:55:29.320Z,27.03
2019-03-22T10:57:48.094Z,26.17
2019-03-22T11:00:19.537Z,29.87
2019-03-22T11:02:50.884Z,31.10
2019-03-22T11:05:40.459Z,30.17
2019-03-22T11:08:26.970Z,31.83
2019-03-22T11:11:00.125Z,32.00
2019-03-22T11:13:38.376Z,30.70
2019-03-22T11:19:06.366Z,33.87
2019-03-22T11:21:40.484Z,29.73
2019-03-22T11:24:24.190Z,29.10
2019-03-22T11:30:32.545Z,30.03
2019-03-22T11:33:07.895Z,33.03
2019-03-22T11:35:55.157Z,32.77
2019-03-22T11:38:26.554Z,31.77
2019-03-22T11:41:00.157Z,32.60
2019-03-22T11:43:31.303Z,34.70
2019-03-22T11:46:02.855Z,34.00
2019-03-22T11:48:38.941Z,33.73
2019-03-22T11:51:11.705Z,32.07
2019-03-22T11:53:42.416Z,30.47
2019-03-22T11:56:16.435Z,35.67
2019-03-22T11:58:50.855Z,34.67
2019-03-22T12:01:22.690Z,35.23
2019-03-22T12:03:58.678Z,37.07
2019-03-22T12:06:37.788Z,34.83
2019-03-22T12:09:12.843Z,36.53
2019-03-22T12:11:44.925Z,36.13
2019-03-22T12:14:16.036Z,35.67
2019-03-22T12:16:57.930Z,32.07
2019-03-22T12:19:38.498Z,32.03
2019-03-22T12:22:10.166Z,34.13
2019-03-22T12:24:42.313Z,34.03
2019-03-22T12:27:15.112Z,34.00
2019-03-22T12:29:46.039Z,31.57
2019-03-22T12:32:16.565Z,33.97
2019-03-22T12:34:48.420Z,30.30
2019-03-22T12:37:19.157Z,32.40
2019-03-22T12:39:49.994Z,32.17
2019-03-22T12:42:23.077Z,31.03
2019-03-22T12:44:54.736Z,33.03
2019-03-22T12:47:32.952Z,31.97
2019-03-22T12:50:03.614Z,31.40
2019-03-22T12:52:36.780Z,30.53
2019-03-22T12:55:08.314Z,33.87
2019-03-22T12:57:38.542Z,31.23
2019-03-22T13:00:16.755Z,32.40
2019-03-22T13:02:50.144Z,30.17
2019-03-22T13:08:09.016Z,32.27
2019-03-22T13:10:40.057Z,28.47
2019-03-22T13:13:16.825Z,32.30
2019-03-22T13:15:51.662Z,32.90
2019-03-22T13:18:21.984Z,31.03
2019-03-22T13:20:59.035Z,28.47
2019-03-22T13:23:29.703Z,28.23
2019-03-22T13:26:10.159Z,26.73
2019-03-22T13:28:40.895Z,28.53
2019-03-22T13:31:12.351Z,27.83
2019-03-22T13:33:42.767Z,25.47
2019-03-22T13:36:13.414Z,26.70
2019-03-22T13:38:45.056Z,28.47
2019-03-22T13:41:21.734Z,26.57
2019-03-22T13:43:52.144Z,30.57
2019-03-22T13:46:23.099Z,29.30
2019-03-22T13:52:17.714Z,29.23
2019-03-22T13:54:47.814Z,28.03
2019-03-22T13:57:18.874Z,30.70
2019-03-22T14:00:04.473Z,29.90
2019-03-22T14:05:25.667Z,29.70
2019-03-22T14:07:56.614Z,25.87
2019-03-22T14:10:31.336Z,28.83
2019-03-22T14:13:02.382Z,28.83
2019-03-22T14:15:33.112Z,26.90
2019-03-22T14:18:11.732Z,38.93
2019-03-22T14:20:43.492Z,27.23
2019-03-22T14:23:14.531Z,29.07
2019-03-22T14:25:47.825Z,28.03
2019-03-22T14:28:20.808Z,25.97
2019-03-22T14:30:51.331Z,29.57
2019-03-22T14:33:21.867Z,44.37
2019-03-22T14:36:04.474Z,26.30
2019-03-22T14:38:35.009Z,33.20
2019-03-22T14:41:05.427Z,30.10
2019-03-22T14:43:35.754Z,27.93
2019-03-22T14:46:09.774Z,28.73
2019-03-22T14:48:40.495Z,28.17
2019-03-22T14:51:10.822Z,32.60
2019-03-22T14:53:41.864Z,28.83
2019-03-22T14:56:14.748Z,29.43
2019-03-22T14:58:48.164Z,27.90
2019-03-22T15:01:19.395Z,28.17
2019-03-22T15:03:54.524Z,30.67
2019-03-22T15:06:27.826Z,30.97
2019-03-22T15:08:58.035Z,34.20
2019-03-22T15:11:28.254Z,37.70
2019-03-22T15:14:19.437Z,34.57
2019-03-22T15:17:02.487Z,43.23
2019-03-22T15:19:52.155Z,32.40
2019-03-22T15:22:40.434Z,38.30
2019-03-22T15:25:33.585Z,32.60
2019-03-22T15:28:25.635Z,33.90
2019-03-22T15:31:15.805Z,36.43
2019-03-22T15:34:08.159Z,41.07
2019-03-22T15:37:06.601Z,47.80
2019-03-22T15:39:56.015Z,42.10
2019-03-22T15:42:28.668Z,35.97
2019-03-22T15:47:51.955Z,35.80
2019-03-22T15:50:31.516Z,32.53
2019-03-22T15:53:07.054Z,32.23
2019-03-22T15:55:40.127Z,30.53
2019-03-22T15:58:14.156Z,33.07
2019-03-22T16:00:48.955Z,38.70
2019-03-22T16:03:19.396Z,39.33
2019-03-22T16:05:50.173Z,31.17
2019-03-22T16:08:21.984Z,33.73
2019-03-22T16:10:52.305Z,51.00
2019-03-22T16:13:22.414Z,50.03
2019-03-22T16:15:52.855Z,39.80
2019-03-22T16:18:24.404Z,60.60
2019-03-22T16:20:59.969Z,59.27
2019-03-22T16:23:27.814Z,39.77
2019-03-22T16:25:58.146Z,47.07
2019-03-22T16:28:28.275Z,27.20
2019-03-22T16:30:58.686Z,26.80
2019-03-22T16:33:29.015Z,26.50
2019-03-22T16:35:59.545Z,24.63
2019-03-22T16:38:30.065Z,23.83
2019-03-22T16:41:00.714Z,23.30
2019-03-22T16:43:31.324Z,23.03
2019-03-22T16:46:02.666Z,22.23
2019-03-22T16:48:32.795Z,27.60
2019-03-22T16:51:03.624Z,39.60
2019-03-22T16:53:35.145Z,47.53
2019-03-22T16:56:06.015Z,44.77
2019-03-22T16:58:36.565Z,41.77
2019-03-22T17:01:07.685Z,44.30
2019-03-22T17:03:38.415Z,47.80
2019-03-22T17:06:08.545Z,47.07
2019-03-22T17:08:39.075Z,47.90
2019-03-22T17:11:09.494Z,58.10
2019-03-22T17:13:39.935Z,64.70
2019-03-22T17:16:10.162Z,72.53
2019-03-22T17:18:40.055Z,61.50
2019-03-22T17:21:10.154Z,74.37
2019-03-22T17:23:40.394Z,63.83
2019-03-22T17:26:11.955Z,51.60
2019-03-22T17:28:44.325Z,49.00
2019-03-22T17:31:14.847Z,49.87
2019-03-22T17:33:45.494Z,61.17
2019-03-22T17:36:23.161Z,58.07
2019-03-22T17:38:54.005Z,49.37
2019-03-22T17:41:23.935Z,46.00
2019-03-22T17:43:54.155Z,40.70
2019-03-22T17:46:24.365Z,33.83
2019-03-22T17:48:54.488Z,32.83
2019-03-22T17:51:46.426Z,34.80
2019-03-22T17:54:46.025Z,33.27
2019-03-22T17:57:21.696Z,31.37
2019-03-22T18:00:00.913Z,30.23
2019-03-22T18:02:37.077Z,29.07
2019-03-22T18:05:11.144Z,28.30
2019-03-22T18:07:42.956Z,28.57
2019-03-22T18:10:13.146Z,25.63
2019-03-22T18:12:43.166Z,25.50
2019-03-22T18:15:13.395Z,26.93
2019-03-22T18:17:43.516Z,26.33
2019-03-22T18:20:14.656Z,30.23
2019-03-22T18:22:44.985Z,28.00
2019-03-22T18:25:15.893Z,26.83
2019-03-22T18:27:46.976Z,28.83
2019-03-22T18:30:17.486Z,29.57
2019-03-22T18:35:38.837Z,28.07
2019-03-22T18:38:12.008Z,30.43
2019-03-22T18:40:46.225Z,30.97
2019-03-22T19:05:49.767Z,30.60
2019-03-22T19:08:25.436Z,42.47
2019-03-22T19:10:58.605Z,42.77
2019-03-22T19:13:33.955Z,42.30
2019-03-22T19:16:04.891Z,50.77
2019-03-22T19:18:36.035Z,50.43
2019-03-22T19:21:07.487Z,38.80
2019-03-22T19:23:43.646Z,37.93
2019-03-22T19:26:14.497Z,43.10
2019-03-22T19:28:46.956Z,37.37
2019-03-22T19:31:18.149Z,35.77
2019-03-22T19:33:49.036Z,39.70
2019-03-22T19:36:22.962Z,41.97
2019-03-22T19:38:54.596Z,37.67
2019-03-22T19:41:26.864Z,47.03
2019-03-22T19:43:59.136Z,46.17
2019-03-22T19:46:36.764Z,43.23
2019-03-22T19:49:15.582Z,42.23
2019-03-22T19:51:48.853Z,69.80
2019-03-22T19:54:22.206Z,97.20
2019-03-22T19:56:57.490Z,88.80
2019-03-22T19:59:38.244Z,89.77
2019-03-22T20:02:11.341Z,75.00
2019-03-22T20:04:43.425Z,72.40
2019-03-22T20:07:26.561Z,72.07
2019-03-22T20:09:52.636Z,62.53
2019-03-22T20:12:25.540Z,63.90
2019-03-22T20:14:56.883Z,61.90
2019-03-22T20:17:27.626Z,50.07
2019-03-22T20:19:58.876Z,42.10
2019-03-22T20:22:30.737Z,45.43
2019-03-22T20:25:02.276Z,46.47
2019-03-22T20:27:37.016Z,49.43
2019-03-22T20:30:11.417Z,48.60
2019-03-22T20:32:43.796Z,46.63
2019-03-22T20:35:17.073Z,46.17
2019-03-22T20:37:49.663Z,46.10
2019-03-22T20:40:26.034Z,44.10
2019-03-22T20:43:03.231Z,44.63
2019-03-22T20:45:34.660Z,40.57
2019-03-22T20:48:09.606Z,39.80
2019-03-22T20:50:52.616Z,42.67
2019-03-22T20:53:24.676Z,43.37
2019-03-22T20:55:56.124Z,48.83
2019-03-22T20:58:28.096Z,57.27
2019-03-22T21:00:58.516Z,58.30
2019-03-22T21:03:30.067Z,61.33
2019-03-22T21:06:04.589Z,61.10
2019-03-22T21:08:35.030Z,59.93
2019-03-22T21:11:09.026Z,60.63
2019-03-22T21:13:40.146Z,57.87
2019-03-22T21:16:12.543Z,59.43
2019-03-22T21:18:43.685Z,54.57
2019-03-22T21:21:13.605Z,51.80
2019-03-22T21:23:43.815Z,53.17
2019-03-22T21:26:14.147Z,57.63
2019-03-22T21:28:44.055Z,54.90
2019-03-22T21:31:15.202Z,55.30
2019-03-22T21:33:45.415Z,52.17
2019-03-22T21:36:19.338Z,54.80
2019-03-22T21:38:53.146Z,58.07
2019-03-22T21:41:23.867Z,57.93
2019-03-22T21:43:53.983Z,55.40
2019-03-22T21:46:24.152Z,56.83
2019-03-22T21:48:54.531Z,60.47
2019-03-22T21:51:24.975Z,61.53
2019-03-22T21:53:55.175Z,62.70
2019-03-22T21:56:26.534Z,59.17
2019-03-22T21:58:56.975Z,57.13
2019-03-22T22:01:27.075Z,63.43
2019-03-22T22:03:57.318Z,61.30
2019-03-22T22:06:27.719Z,61.93
2019-03-22T22:08:57.838Z,67.53
2019-03-22T22:11:28.574Z,68.77
2019-03-22T22:13:59.020Z,62.90
2019-03-22T22:16:29.526Z,64.07
2019-03-22T22:18:59.859Z,59.60
2019-03-22T22:21:29.756Z,58.67
2019-03-22T22:23:59.799Z,58.57
2019-03-22T22:26:29.918Z,54.97
2019-03-22T22:29:02.798Z,54.90
2019-03-22T22:31:33.011Z,54.57
2019-03-22T22:34:03.143Z,54.40
2019-03-22T22:36:33.669Z,53.47
2019-03-22T22:39:04.583Z,54.93
2019-03-22T22:41:35.443Z,55.27
2019-03-22T22:44:06.885Z,54.13
2019-03-22T22:46:37.410Z,55.33
2019-03-22T22:49:07.838Z,53.33
2019-03-22T22:51:40.938Z,52.87
2019-03-22T22:54:11.231Z,54.83
2019-03-22T22:56:41.764Z,53.40
2019-03-22T22:59:11.682Z,54.87
2019-03-22T23:01:41.594Z,55.80
2019-03-22T23:04:11.943Z,55.30
2019-03-22T23:06:41.957Z,56.57
2019-03-22T23:09:12.275Z,56.00
2019-03-22T23:11:42.693Z,57.50
2019-03-22T23:14:13.439Z,59.47
2019-03-22T23:16:43.532Z,57.50
2019-03-22T23:19:13.755Z,58.87
2019-03-22T23:21:43.792Z,58.37
2019-03-22T23:24:13.816Z,55.33
2019-03-22T23:26:43.704Z,55.80
2019-03-22T23:29:13.822Z,56.37
2019-03-22T23:31:43.837Z,55.27
2019-03-22T23:34:14.069Z,55.43
2019-03-22T23:36:44.909Z,52.93
2019-03-22T23:39:15.016Z,52.80
2019-03-22T23:41:45.557Z,53.43
2019-03-22T23:44:15.762Z,52.00
2019-03-22T23:46:48.766Z,53.03
2019-03-22T23:49:19.098Z,54.47
2019-03-22T23:51:49.501Z,48.67
2019-03-22T23:54:19.722Z,51.37
2019-03-22T23:56:49.634Z,52.13
2019-03-22T23:59:19.990Z,52.70
